Time;durP1;ratioP1;P1;durP2;ratioP2;P2;SDS_P1;SDS_P2;PMS_P1;PMS_P2;Temp;Humidity;BMP_temperature;BMP_pressure;BME280_temperature;BME280_humidity;BME280_pressure;Samples;Min_cycle;Max_cycle;Signal;HPM_P1;HPM_P2
2024/02/08 00:00:11;;;;;;;9.85;5.57;;;;;;;8.50;100.00;98869.00;6322668;28;20048;-90
2024/02/08 00:03:13;;;;;;;11.68;5.57;;;;;;;8.59;100.00;98863.16;6304632;28;20048;-82
2024/02/08 00:06:14;;;;;;;9.75;5.70;;;;;;;8.53;100.00;98871.41;6307646;28;20087;-81
2024/02/08 00:09:14;;;;;;;8.75;5.50;;;;;;;8.60;100.00;98858.78;6278767;28;20496;-82
2024/02/08 00:12:16;;;;;;;6.15;3.83;;;;;;;8.50;100.00;98863.00;6296487;28;20495;-82
2024/02/08 00:15:17;;;;;;;10.05;4.93;;;;;;;8.57;100.00;98859.84;6296316;28;20131;-80
2024/02/08 00:18:18;;;;;;;7.75;4.50;;;;;;;8.59;100.00;98854.53;6278361;28;20058;-81
2024/02/08 00:21:19;;;;;;;7.47;4.60;;;;;;;8.64;100.00;98865.44;6296304;28;20045;-81
2024/02/08 00:24:19;;;;;;;9.18;4.43;;;;;;;8.59;100.00;98878.75;6278612;28;20142;-81
2024/02/08 00:27:21;;;;;;;10.63;4.72;;;;;;;8.50;100.00;98876.81;6278448;28;20048;-90
2024/02/08 00:30:22;;;;;;;8.40;4.28;;;;;;;8.42;100.00;98866.97;6283504;28;20481;-90
2024/02/08 00:33:24;;;;;;;8.60;4.63;;;;;;;8.50;100.00;98870.78;6287028;28;20048;-89
2024/02/08 00:36:25;;;;;;;10.13;4.63;;;;;;;8.42;100.00;98879.13;6278686;28;20090;-89
2024/02/08 00:39:25;;;;;;;9.57;5.03;;;;;;;8.42;100.00;98873.91;6279028;28;20052;-89
2024/02/08 00:42:26;;;;;;;8.68;5.07;;;;;;;8.42;100.00;98879.97;6278664;28;20466;-88
2024/02/08 00:45:28;;;;;;;11.93;5.57;;;;;;;8.47;100.00;98877.88;6296384;28;20052;-90
2024/02/08 00:48:29;;;;;;;11.07;4.83;;;;;;;8.48;100.00;98878.69;6278462;28;20056;-81
2024/02/08 00:51:31;;;;;;;9.43;5.18;;;;;;;8.54;100.00;98878.25;6278204;28;20139;-81
2024/02/08 00:54:32;;;;;;;9.40;4.40;;;;;;;8.42;100.00;98885.16;6278056;28;20511;-81
2024/02/08 00:57:33;;;;;;;7.15;4.45;;;;;;;8.48;100.00;98883.88;6278058;28;20044;-81
2024/02/08 01:00:37;;;;;;;15.05;5.13;;;;;;;8.36;100.00;98875.19;6300368;28;20041;-81
2024/02/08 01:03:38;;;;;;;5.00;3.33;;;;;;;8.35;100.00;98885.66;6283083;28;20053;-81
2024/02/08 01:06:40;;;;;;;8.18;4.53;;;;;;;8.51;100.00;98883.69;6282934;28;20086;-88
2024/02/08 01:09:41;;;;;;;12.10;5.53;;;;;;;8.33;100.00;98859.78;6282869;28;20055;-82
2024/02/08 01:12:43;;;;;;;10.10;4.60;;;;;;;8.52;100.00;98877.53;6300825;28;20076;-90
2024/02/08 01:15:46;;;;;;;9.43;4.13;;;;;;;8.38;100.00;98878.50;6282588;28;20563;-81
2024/02/08 01:18:48;;;;;;;8.63;4.10;;;;;;;8.44;100.00;98883.28;6300694;28;20052;-81
2024/02/08 01:21:50;;;;;;;8.67;4.20;;;;;;;8.34;100.00;98876.19;6282453;28;20045;-81
2024/02/08 01:24:50;;;;;;;9.00;4.07;;;;;;;8.36;100.00;98880.38;6282496;28;20094;-81
2024/02/08 01:27:51;;;;;;;9.82;4.53;;;;;;;8.14;100.00;98862.84;6282486;28;20048;-89
2024/02/08 01:30:52;;;;;;;10.30;4.63;;;;;;;8.23;100.00;98869.16;6282563;28;20041;-81
2024/02/08 01:33:53;;;;;;;7.53;3.97;;;;;;;8.27;100.00;98865.41;6284317;28;20072;-82
2024/02/08 01:36:54;;;;;;;8.98;4.38;;;;;;;8.39;100.00;98866.31;6287302;28;20048;-81
2024/02/08 01:39:56;;;;;;;7.13;3.70;;;;;;;8.26;100.00;98868.97;6282108;28;20041;-81
2024/02/08 01:42:57;;;;;;;6.90;3.80;;;;;;;8.24;100.00;98860.44;6315401;28;20045;-81
2024/02/08 01:45:58;;;;;;;7.53;4.15;;;;;;;8.22;100.00;98868.34;6282179;28;20423;-81
2024/02/08 01:48:59;;;;;;;7.88;4.30;;;;;;;8.26;100.00;98871.56;6282718;28;20110;-91
2024/02/08 01:52:01;;;;;;;11.43;4.63;;;;;;;8.32;100.00;98878.06;6316344;28;20132;-90
2024/02/08 01:55:02;;;;;;;8.87;4.10;;;;;;;8.29;100.00;98868.72;6316270;28;20059;-90
2024/02/08 01:58:07;;;;;;;11.55;3.97;;;;;;;8.14;100.00;98862.84;6300738;28;20080;-90
2024/02/08 02:01:09;;;;;;;8.75;4.25;;;;;;;8.25;100.00;98869.88;6282146;28;20105;-81
2024/02/08 02:04:09;;;;;;;8.00;3.83;;;;;;;8.25;100.00;98862.91;6281452;28;20144;-81
2024/02/08 02:07:10;;;;;;;9.05;3.92;;;;;;;8.31;100.00;98869.47;6299343;28;20695;-81
2024/02/08 02:10:11;;;;;;;7.10;3.92;;;;;;;8.35;100.00;98865.69;6280582;28;20055;-81
2024/02/08 02:13:13;;;;;;;7.90;4.05;;;;;;;8.25;100.00;98875.09;6299241;28;20419;-81
2024/02/08 02:16:14;;;;;;;5.97;3.53;;;;;;;7.98;100.00;98875.25;6281270;28;20048;-81
2024/02/08 02:19:15;;;;;;;10.68;3.92;;;;;;;8.07;100.00;98870.25;6281162;28;20060;-81
2024/02/08 02:22:19;;;;;;;4.80;3.35;;;;;;;7.95;100.00;98872.84;6281146;28;20049;-80
2024/02/08 02:25:19;;;;;;;8.75;3.83;;;;;;;7.93;100.00;98874.72;6280860;28;20106;-81
2024/02/08 02:28:21;;;;;;;9.10;4.00;;;;;;;7.98;100.00;98868.28;6298747;28;20052;-81
2024/02/08 02:31:23;;;;;;;6.47;3.50;;;;;;;7.81;100.00;98859.06;6280806;28;20559;-81
2024/02/08 02:34:26;;;;;;;6.72;3.88;;;;;;;7.80;100.00;98854.81;6281892;28;20054;-81
2024/02/08 02:37:26;;;;;;;7.75;3.72;;;;;;;7.80;100.00;98859.16;6305913;28;20079;-81
2024/02/08 02:40:30;;;;;;;8.30;4.10;;;;;;;7.85;100.00;98852.72;6305794;28;20088;-82
2024/02/08 02:43:32;;;;;;;13.43;4.10;;;;;;;7.75;100.00;98849.09;6323522;28;20530;-81
2024/02/08 02:46:33;;;;;;;10.18;3.53;;;;;;;7.73;100.00;98842.34;6323343;28;20458;-81
2024/02/08 02:49:36;;;;;;;8.95;4.18;;;;;;;7.70;100.00;98853.78;6288425;28;20102;-81
2024/02/08 02:52:37;;;;;;;9.98;4.00;;;;;;;7.75;100.00;98837.88;6280419;28;20581;-89
2024/02/08 02:55:38;;;;;;;6.07;3.80;;;;;;;7.63;100.00;98845.56;6280394;28;20056;-88
2024/02/08 02:58:39;;;;;;;6.57;3.90;;;;;;;7.63;100.00;98840.34;6298254;28;20098;-89
2024/02/08 03:01:42;;;;;;;8.60;3.70;;;;;;;7.60;100.00;98822.41;6298624;28;20052;-89
2024/02/08 03:04:43;;;;;;;6.15;3.70;;;;;;;7.60;100.00;98835.38;6306597;28;20052;-90
2024/02/08 03:07:45;;;;;;;9.70;3.83;;;;;;;7.70;100.00;98835.59;6323250;28;20094;-89
2024/02/08 03:10:46;;;;;;;8.52;3.92;;;;;;;7.63;100.00;98829.97;6305353;28;20512;-88
2024/02/08 03:13:49;;;;;;;6.40;3.67;;;;;;;7.69;100.00;98833.09;6305201;28;20077;-90
2024/02/08 03:16:50;;;;;;;;;;;;;;;7.69;100.00;98849.50;6305723;28;20083;-91
2024/02/08 03:19:51;;;;;;;8.68;3.75;;;;;;;7.63;100.00;98842.13;6305387;28;19927;-90
2024/02/08 03:22:53;;;;;;;8.80;3.83;;;;;;;7.61;100.00;98847.41;6283583;28;20070;-88
2024/02/08 03:25:56;;;;;;;10.38;3.97;;;;;;;7.44;100.00;98835.59;6280809;28;20048;-90
2024/02/08 03:28:57;;;;;;;6.65;3.47;;;;;;;7.52;100.00;98840.28;6313697;28;20049;-89
2024/02/08 03:31:58;;;;;;;9.77;3.88;;;;;;;7.47;100.00;98832.81;6313758;28;20102;-90
2024/02/08 03:34:59;;;;;;;9.07;3.80;;;;;;;7.56;100.00;98836.53;6297965;28;20091;-81
2024/02/08 03:38:01;;;;;;;7.90;3.00;;;;;;;7.51;100.00;98848.16;6279690;28;20500;-91
2024/02/08 03:41:02;;;;;;;9.10;4.22;;;;;;;7.59;100.00;98845.88;6280362;28;20389;-92
2024/02/08 03:44:03;;;;;;;7.97;3.83;;;;;;;7.54;100.00;98840.19;6297430;28;20052;-91
2024/02/08 03:47:12;;;;;;;6.47;3.70;;;;;;;7.50;100.00;98849.09;6279139;28;20408;-81
2024/02/08 03:50:14;;;;;;;6.60;4.18;;;;;;;7.47;100.00;98850.13;6303702;28;20044;-80
2024/02/08 03:53:15;;;;;;;5.75;3.17;;;;;;;7.51;100.00;98846.38;6303771;28;20083;-89
2024/02/08 03:56:15;;;;;;;9.57;3.58;;;;;;;7.51;100.00;98838.59;6284101;28;20105;-90
2024/02/08 03:59:26;;;;;;;10.00;3.70;;;;;;;7.58;100.00;98839.03;6299022;28;20084;-90
2024/02/08 04:02:27;;;;;;;8.35;4.32;;;;;;;7.57;100.00;98845.16;6292225;28;20052;-81
2024/02/08 04:05:37;;;;;;;6.60;3.80;;;;;;;7.40;100.00;98838.50;6279867;28;20105;-81
2024/02/08 04:09:06;;;;;;;5.82;3.38;;;;;;;7.39;100.00;98836.81;6296634;28;20484;-90
2024/02/08 04:55:51;;;;;;;10.70;3.17;;;;;;;7.61;100.00;98881.16;6296544;28;20507;-90
2024/02/08 04:58:52;;;;;;;6.53;3.40;;;;;;;7.60;100.00;98881.28;6278894;28;20052;-89
2024/02/08 05:01:53;;;;;;;7.60;3.30;;;;;;;7.59;100.00;98872.66;6309678;28;20044;-90
2024/02/08 05:04:54;;;;;;;5.57;3.22;;;;;;;7.58;100.00;98880.56;6303511;28;20044;-91
2024/02/08 05:08:00;;;;;;;15.82;6.53;;;;;;;7.52;100.00;98881.81;6314453;28;20055;-89
2024/02/08 05:11:03;;;;;;;9.40;4.50;;;;;;;7.53;100.00;98886.03;6317441;28;20439;-87
2024/02/08 05:14:04;;;;;;;;;;;;;;;7.41;100.00;98898.09;6286330;28;20074;-89
2024/02/08 05:17:08;;;;;;;5.50;3.45;;;;;;;7.53;100.00;98893.84;6321102;28;19965;-82
2024/02/08 05:20:11;;;;;;;7.20;3.17;;;;;;;7.43;100.00;98892.78;6302598;28;20074;-81
2024/02/08 05:23:12;;;;;;;10.43;3.65;;;;;;;7.50;100.00;98888.88;6302786;28;20102;-83
2024/02/08 05:26:19;;;;;;;5.88;2.88;;;;;;;7.59;100.00;98892.59;6295212;28;20048;-82
2024/02/08 05:29:20;;;;;;;11.07;3.75;;;;;;;7.43;100.00;98877.22;6301982;28;20121;-84
2024/02/08 05:32:23;;;;;;;8.38;4.53;;;;;;;7.44;100.00;98890.09;6282890;28;20473;-80
2024/02/08 05:35:26;;;;;;;6.20;3.65;;;;;;;7.45;100.00;98894.38;6290451;28;20044;-89
2024/02/08 05:38:33;;;;;;;5.65;3.42;;;;;;;7.54;100.00;98895.50;6295975;28;20049;-90
2024/02/08 05:41:34;;;;;;;5.18;2.90;;;;;;;7.54;100.00;98902.47;6280357;28;20066;-91
2024/02/08 05:44:40;;;;;;;8.63;3.25;;;;;;;7.43;100.00;98895.38;6281840;28;20067;-89
2024/02/08 05:47:41;;;;;;;6.90;3.25;;;;;;;7.57;100.00;98907.44;6283169;28;20052;-88
2024/02/08 05:50:44;;;;;;;6.53;3.10;;;;;;;7.57;100.00;98908.28;6298340;28;20093;-88
2024/02/08 05:53:45;;;;;;;7.75;3.92;;;;;;;7.54;100.00;98915.44;6299515;28;20052;-90
2024/02/08 05:56:47;;;;;;;6.60;3.88;;;;;;;7.56;100.00;98911.00;6306276;28;20502;-90
2024/02/08 05:59:47;;;;;;;6.97;3.93;;;;;;;7.59;100.00;98916.78;6306320;28;20082;-90
2024/02/08 06:02:49;;;;;;;6.38;3.92;;;;;;;7.74;100.00;98921.88;6305620;28;20052;-89
2024/02/08 06:05:58;;;;;;;19.60;7.90;;;;;;;7.71;100.00;98924.69;6323920;28;20059;-89
2024/02/08 06:09:08;;;;;;;5.55;3.25;;;;;;;7.74;100.00;98924.47;6305809;28;20055;-88
2024/02/08 06:12:09;;;;;;;7.25;3.28;;;;;;;7.92;100.00;98925.84;6306285;28;20389;-82
2024/02/08 06:15:24;;;;;;;8.23;4.03;;;;;;;7.91;100.00;98937.19;6305915;28;20055;-83
2024/02/08 06:18:30;;;;;;;10.38;4.47;;;;;;;7.91;100.00;98934.59;6305699;28;20062;-83
2024/02/08 06:21:57;;;;;;;5.35;3.33;;;;;;;7.96;100.00;98945.47;6305949;28;20082;-83
2024/02/08 06:25:45;;;;;;;7.28;3.03;;;;;;;7.91;100.00;98937.19;6323170;28;20048;-82
2024/02/08 06:28:24;;;;;;;6.95;3.20;;;;;;;7.94;100.00;98943.91;6312806;28;20423;-83
2024/02/08 06:31:40;;;;;;;12.95;4.55;;;;;;;8.07;100.00;98939.53;6323713;28;20055;-82
2024/02/08 06:34:47;;;;;;;10.43;4.55;;;;;;;8.13;100.00;98926.13;6305553;28;20048;-82
2024/02/08 06:38:03;;;;;;;27.20;8.55;;;;;;;8.08;100.00;98939.44;6305421;28;20096;-83
2024/02/08 06:41:04;;;;;;;14.40;6.20;;;;;;;8.08;100.00;98939.44;6323843;28;20079;-84
2024/02/08 06:44:42;;;;;;;21.98;7.45;;;;;;;8.18;100.00;98931.03;6314590;28;20403;-83
2024/02/08 06:47:54;;;;;;;12.13;4.65;;;;;;;8.16;100.00;98941.53;6321247;28;20051;-85
2024/02/08 07:37:36;;;;;;;8.02;4.40;;;;;;;8.91;100.00;98989.25;6323036;28;20158;-85
2024/02/08 07:40:36;;;;;;;9.40;4.63;;;;;;;8.96;100.00;98977.56;6305334;28;20116;-91
2024/02/08 07:43:43;;;;;;;15.32;6.72;;;;;;;9.19;100.00;98969.88;6305370;28;20067;-89
2024/02/08 07:46:47;;;;;;;9.27;4.57;;;;;;;9.22;100.00;98967.88;6304909;28;20058;-87
2024/02/08 07:49:49;;;;;;;6.85;3.92;;;;;;;9.32;100.00;98956.81;6304682;28;20137;-87
2024/02/08 07:52:58;;;;;;;15.73;5.95;;;;;;;9.54;100.00;98948.25;6304323;28;20058;-89
2024/02/08 07:56:18;;;;;;;9.32;4.45;;;;;;;9.57;100.00;98961.84;6304618;28;20048;-87
2024/02/08 07:59:26;;;;;;;25.05;9.60;;;;;;;9.70;100.00;98959.19;6304703;28;20052;-89
2024/02/08 08:02:29;;;;;;;32.33;11.43;;;;;;;9.58;100.00;98965.31;6304472;28;20119;-84
2024/02/08 08:05:33;;;;;;;14.23;6.13;;;;;;;9.65;100.00;98966.50;6323344;28;20442;-91
2024/02/08 08:08:36;;;;;;;16.67;6.10;;;;;;;9.41;100.00;98954.38;6304050;28;20047;-90
2024/02/08 08:11:39;;;;;;;16.25;6.15;;;;;;;9.24;100.00;98945.16;6305504;28;20044;-89
2024/02/08 08:17:42;;;;;;;13.07;5.82;;;;;;;9.20;100.00;98963.72;6322003;28;20052;-89
2024/02/08 08:20:58;;;;;;;;;;;;;;;9.14;100.00;98975.44;6305071;28;20066;-84
2024/02/08 08:24:02;;;;;;;58.72;22.30;;;;;;;9.42;100.00;98974.22;6305513;28;19920;-96
2024/02/08 08:27:06;;;;;;;47.33;21.27;;;;;;;9.40;100.00;98973.50;6305366;28;20412;-85
2024/02/08 08:30:08;;;;;;;28.02;14.57;;;;;;;9.58;100.00;98975.72;6303639;28;20053;-85
2024/02/08 08:33:09;;;;;;;17.13;8.17;;;;;;;9.58;100.00;98967.91;6304495;28;20051;-85
2024/02/08 08:36:28;;;;;;;16.25;6.32;;;;;;;9.75;100.00;98987.50;6321525;28;20089;-87
2024/02/08 08:39:46;;;;;;;16.92;7.97;;;;;;;10.04;100.00;98988.72;6304304;28;20399;-84
2024/02/08 08:42:50;;;;;;;13.68;4.93;;;;;;;10.05;100.00;98995.59;6302865;28;20221;-84
2024/02/08 08:45:53;;;;;;;18.50;9.13;;;;;;;9.99;100.00;98983.03;6302176;28;20050;-88
2024/02/08 08:48:54;;;;;;;13.70;4.10;;;;;;;9.92;100.00;98970.59;6328896;28;20104;-83
2024/02/08 08:51:58;;;;;;;35.25;19.55;;;;;;;10.21;100.00;98984.00;6278946;28;20048;-89
2024/02/08 08:55:11;;;;;;;18.02;11.32;;;;;;;10.30;100.00;98969.50;6286827;28;20112;-87
2024/02/08 08:58:12;;;;;;;;;;;;;;;10.77;100.00;98970.13;6315393;28;20082;-85
2024/02/08 09:01:21;;;;;;;10.57;4.05;;;;;;;10.96;100.00;98951.25;6305024;28;19927;-89
2024/02/08 09:04:25;;;;;;;8.77;4.32;;;;;;;11.29;100.00;98958.16;6321207;28;20055;-84
2024/02/08 09:07:30;;;;;;;15.65;5.57;;;;;;;11.15;100.00;98959.25;6322380;28;20524;-89
2024/02/08 09:10:34;;;;;;;10.38;5.68;;;;;;;11.22;100.00;98952.59;6303175;28;20168;-87
2024/02/08 09:13:37;;;;;;;12.90;4.47;;;;;;;11.14;100.00;98951.53;6321158;28;20083;-89
2024/02/08 09:16:52;;;;;;;10.82;5.18;;;;;;;11.32;100.00;98965.72;6303142;28;20492;-85
2024/02/08 09:19:53;;;;;;;7.40;4.20;;;;;;;11.57;98.22;98969.78;6322794;28;20438;-84
2024/02/08 09:22:57;;;;;;;7.38;3.80;;;;;;;11.43;97.98;98964.88;6326070;28;20180;-88
2024/02/08 09:26:00;;;;;;;7.97;4.10;;;;;;;11.68;95.90;98954.03;6308055;28;20052;-83
2024/02/08 09:29:09;;;;;;;15.13;4.25;;;;;;;11.59;96.98;98954.81;6307599;28;20054;-84
2024/02/08 09:32:43;;;;;;;7.68;3.28;;;;;;;11.57;95.97;98953.25;6308502;28;20578;-87
2024/02/08 09:35:41;;;;;;;9.40;4.07;;;;;;;11.52;95.79;98937.97;6325995;28;20572;-90
2024/02/08 09:38:43;;;;;;;8.95;4.00;;;;;;;11.62;96.47;98946.72;6325775;28;20048;-82
2024/02/08 09:41:47;;;;;;;13.48;4.38;;;;;;;11.53;97.29;98933.56;6307262;28;20060;-83
2024/02/08 09:44:49;;;;;;;8.98;3.47;;;;;;;11.51;96.45;98944.16;6307220;28;20047;-83
2024/02/08 09:47:52;;;;;;;6.28;3.35;;;;;;;11.53;96.52;98936.19;6306935;28;20048;-93
2024/02/08 09:50:59;;;;;;;7.22;3.95;;;;;;;11.57;97.29;98935.81;6325614;28;20048;-93
2024/02/08 09:54:15;;;;;;;8.80;4.38;;;;;;;11.37;98.10;98937.47;6307691;28;20047;-91
2024/02/08 09:57:22;;;;;;;13.27;5.07;;;;;;;11.55;98.07;98935.13;6307396;28;20048;-92
2024/02/08 10:00:57;;;;;;;12.48;4.88;;;;;;;11.84;96.05;98932.69;6306720;28;20492;-89
2024/02/08 10:03:50;;;;;;;8.13;4.32;;;;;;;11.89;93.98;98924.47;6322149;28;20044;-88
2024/02/08 10:10:03;;;;;;;8.90;4.05;;;;;;;12.04;92.55;98923.16;6323975;28;20077;-83
2024/02/08 10:13:13;;;;;;;7.40;3.80;;;;;;;12.15;91.68;98927.50;6324130;28;20482;-83
2024/02/08 10:16:14;;;;;;;4.22;2.95;;;;;;;12.10;90.42;98919.22;6306291;28;20538;-88
2024/02/08 10:19:28;;;;;;;7.35;4.00;;;;;;;12.13;91.23;98920.72;6305970;28;20087;-91
2024/02/08 10:22:29;;;;;;;19.08;11.35;;;;;;;12.13;91.17;98912.88;6306351;28;20076;-92
2024/02/08 10:28:53;;;;;;;11.65;5.30;;;;;;;12.14;90.78;98912.75;6324991;28;20052;-92
2024/02/08 10:31:58;;;;;;;17.15;6.82;;;;;;;12.35;91.72;98898.78;6307590;28;20507;-93
2024/02/08 10:35:13;;;;;;;10.82;5.97;;;;;;;12.38;90.51;98904.59;6308487;28;20530;-91
2024/02/08 10:38:30;;;;;;;9.60;5.18;;;;;;;12.59;89.98;98901.06;6305303;28;20557;-84
2024/02/08 10:41:38;;;;;;;9.07;4.10;;;;;;;12.95;87.02;98897.00;6305362;28;20048;-82
2024/02/08 10:44:40;;;;;;;10.60;4.50;;;;;;;13.01;85.55;98890.38;6305255;28;20530;-83
2024/02/08 10:47:40;;;;;;;11.27;4.90;;;;;;;13.35;84.77;98882.13;6305215;28;20047;-83
2024/02/08 10:50:44;;;;;;;7.32;3.85;;;;;;;13.62;83.24;98891.88;6305798;28;20105;-95
2024/02/08 10:53:48;;;;;;;7.85;4.13;;;;;;;13.82;82.79;98884.78;6307358;28;20054;-91
2024/02/08 10:57:06;;;;;;;9.05;3.83;;;;;;;13.98;79.40;98879.78;6307479;28;20508;-93
2024/02/08 11:03:36;;;;;;;11.50;4.15;;;;;;;14.31;77.44;98894.13;6325945;28;20541;-93
2024/02/08 11:06:45;;;;;;;8.40;4.28;;;;;;;14.21;76.12;98890.72;6308314;28;20055;-81
2024/02/08 11:09:46;;;;;;;7.32;4.10;;;;;;;14.20;77.89;98883.78;6305405;28;20048;-95
2024/02/08 11:12:52;;;;;;;9.02;3.78;;;;;;;14.07;77.98;98892.00;6306947;28;20063;-93
2024/02/08 11:15:53;;;;;;;9.90;4.00;;;;;;;14.17;76.71;98893.78;6323437;28;20050;-91
2024/02/08 11:18:56;;;;;;;5.18;3.28;;;;;;;14.13;75.49;98895.03;6305429;28;20078;-93
2024/02/08 11:22:18;;;;;;;;;;;;;;;13.84;74.91;98888.91;6305277;28;20198;-89
2024/02/08 11:25:19;;;;;;;6.88;3.72;;;;;;;13.87;75.64;98890.41;6304625;28;20372;-85
2024/02/08 11:28:28;;;;;;;7.13;3.40;;;;;;;14.03;75.66;98895.88;6322398;28;20514;-84
2024/02/08 11:31:32;;;;;;;7.43;3.28;;;;;;;14.05;76.02;98888.69;6304406;28;20089;-83
2024/02/08 11:34:44;;;;;;;8.25;3.38;;;;;;;13.88;74.97;98879.78;6304598;28;20048;-88
2024/02/08 11:37:47;;;;;;;8.13;3.67;;;;;;;14.34;74.29;98874.63;6305997;28;20048;-84
2024/02/08 11:40:49;;;;;;;6.22;3.20;;;;;;;14.39;73.51;98867.16;6304867;28;20040;-84
2024/02/08 11:44:11;;;;;;;5.47;3.13;;;;;;;14.17;73.27;98865.75;6304192;28;20052;-84
2024/02/08 11:47:19;;;;;;;7.03;3.25;;;;;;;14.17;70.79;98857.88;6304724;28;20134;-84
2024/02/08 11:50:22;;;;;;;7.57;3.30;;;;;;;14.43;70.52;98862.41;6304743;28;20573;-92
2024/02/08 11:53:31;;;;;;;8.73;3.35;;;;;;;14.86;71.74;98853.03;6305421;28;20480;-85
2024/02/08 11:56:33;;;;;;;7.00;4.07;;;;;;;14.91;71.78;98854.25;6304156;28;20059;-85
2024/02/08 11:59:37;;;;;;;9.27;4.05;;;;;;;14.84;72.87;98850.56;6303905;28;20052;-84
2024/02/08 12:02:39;;;;;;;8.02;3.83;;;;;;;14.75;73.09;98840.16;6304536;28;20040;-84
2024/02/08 12:05:41;;;;;;;8.03;3.63;;;;;;;15.05;72.12;98842.38;6322599;28;20136;-86
2024/02/08 12:08:50;;;;;;;;;;;;;;;15.26;71.07;98857.00;6322694;28;20334;-87
2024/02/08 12:11:56;;;;;;;9.85;3.20;;;;;;;14.81;70.28;98850.06;6322605;28;19920;-87
2024/02/08 12:14:59;;;;;;;9.23;3.92;;;;;;;14.73;71.70;98826.34;6304085;28;20048;-86
2024/02/08 12:18:07;;;;;;;8.30;3.03;;;;;;;14.76;71.14;98837.34;6303694;28;20056;-84
2024/02/08 12:21:08;;;;;;;8.38;4.25;;;;;;;14.84;72.78;98837.41;6304166;28;20083;-87
2024/02/08 12:24:15;;;;;;;10.57;4.40;;;;;;;14.61;74.18;98837.03;6304291;28;20048;-87
2024/02/08 12:27:25;;;;;;;6.38;3.63;;;;;;;14.36;75.86;98835.13;6304489;28;20109;-86
2024/02/08 12:30:33;;;;;;;7.07;3.67;;;;;;;14.43;74.63;98838.78;6321895;28;20439;-83
2024/02/08 12:33:35;;;;;;;7.78;4.20;;;;;;;14.42;75.65;98842.41;6303871;28;20047;-85
2024/02/08 12:36:36;;;;;;;5.60;3.50;;;;;;;14.67;76.21;98843.50;6303270;28;20073;-87
2024/02/08 12:39:41;;;;;;;6.70;3.35;;;;;;;15.07;74.37;98839.59;6303582;28;20055;-85
2024/02/08 12:42:42;;;;;;;6.82;3.47;;;;;;;15.15;73.56;98836.22;6321130;28;20060;-84
2024/02/08 12:45:45;;;;;;;8.48;4.00;;;;;;;15.18;71.86;98835.91;6321404;28;20126;-89
2024/02/08 12:48:49;;;;;;;5.53;3.25;;;;;;;14.90;72.40;98833.38;6321071;28;20459;-86
2024/02/08 12:51:56;;;;;;;6.57;3.30;;;;;;;15.04;70.34;98818.88;6303109;28;20138;-92
2024/02/08 12:55:00;;;;;;;7.13;3.28;;;;;;;14.91;69.86;98825.34;6305765;28;20044;-83
2024/02/08 12:58:02;;;;;;;5.70;3.10;;;;;;;14.73;69.65;98815.84;6308479;28;20084;-86
2024/02/08 13:01:04;;;;;;;12.73;6.43;;;;;;;14.79;69.32;98815.25;6307880;28;20048;-87
2024/02/08 13:04:06;;;;;;;3.75;2.30;;;;;;;14.71;70.27;98810.72;6326147;28;20048;-89
2024/02/08 13:07:07;;;;;;;10.82;3.58;;;;;;;14.73;72.09;98808.78;6308592;28;20051;-83
2024/02/08 13:10:15;;;;;;;21.35;9.40;;;;;;;14.13;72.79;98811.09;6307643;28;20137;-86
2024/02/08 13:13:23;;;;;;;13.75;6.53;;;;;;;14.11;73.07;98808.63;6325831;28;20468;-89
2024/02/08 13:16:25;;;;;;;20.98;10.63;;;;;;;14.01;73.36;98813.91;6325483;28;20630;-87
2024/02/08 13:19:30;;;;;;;34.07;14.90;;;;;;;13.94;73.89;98812.84;6307514;28;20058;-87
2024/02/08 13:22:33;;;;;;;15.15;6.47;;;;;;;13.91;73.06;98827.06;6307823;28;20105;-89
2024/02/08 13:25:34;;;;;;;9.40;4.90;;;;;;;13.75;72.45;98824.22;6308211;28;20083;-90
2024/02/08 13:28:35;;;;;;;11.07;3.75;;;;;;;13.94;73.38;98831.19;6307647;28;20173;-88
2024/02/08 13:31:38;;;;;;;5.63;2.72;;;;;;;13.87;73.07;98819.63;6307163;28;20491;-83
2024/02/08 13:34:40;;;;;;;7.63;3.97;;;;;;;13.93;74.36;98823.47;6325371;28;20048;-85
2024/02/08 13:37:41;;;;;;;7.03;3.20;;;;;;;13.83;74.66;98818.25;6307087;28;20300;-85
2024/02/08 13:40:42;;;;;;;5.82;3.00;;;;;;;13.72;74.79;98818.47;6307005;28;20056;-89
2024/02/08 13:43:48;;;;;;;8.98;4.25;;;;;;;13.77;73.77;98818.84;6325184;28;20056;-85
2024/02/08 13:46:51;;;;;;;8.85;3.20;;;;;;;13.93;72.89;98826.09;6325233;28;20048;-89
2024/02/08 13:49:55;;;;;;;5.80;3.25;;;;;;;13.70;72.30;98816.78;6307050;28;20055;-90
2024/02/08 13:52:57;;;;;;;5.18;2.53;;;;;;;13.76;72.87;98828.50;6324736;28;20043;-85
2024/02/08 13:55:58;;;;;;;6.10;2.67;;;;;;;13.83;72.90;98829.56;6306702;28;20048;-90
2024/02/08 13:59:00;;;;;;;5.35;2.53;;;;;;;13.69;72.67;98825.63;6306841;28;20048;-90
2024/02/08 14:02:01;;;;;;;;;;;;;;;13.93;72.60;98829.53;6307092;28;20264;-91
2024/02/08 14:05:16;;;;;;;8.63;3.50;;;;;;;14.08;72.70;98832.50;6307092;28;19966;-89
2024/02/08 14:08:17;;;;;;;4.65;2.53;;;;;;;14.08;71.72;98819.38;6308331;28;20158;-87
2024/02/08 14:11:21;;;;;;;3.67;1.92;;;;;;;14.24;70.20;98818.75;6306800;28;20396;-88
2024/02/08 14:14:30;;;;;;;3.95;2.20;;;;;;;14.45;70.07;98828.97;6306640;28;20062;-89
2024/02/08 14:17:34;;;;;;;8.77;3.88;;;;;;;14.08;69.16;98822.00;6281350;28;20515;-83
2024/02/08 14:20:43;;;;;;;134.63;39.47;;;;;;;14.38;70.33;98831.38;6281312;28;20055;-85
2024/02/08 14:23:48;;;;;;;25.83;9.25;;;;;;;14.10;69.43;98820.91;6299011;28;20052;-88
2024/02/08 14:26:50;;;;;;;43.30;13.45;;;;;;;14.07;69.67;98821.19;6281169;28;20106;-87
2024/02/08 14:29:51;;;;;;;27.13;9.10;;;;;;;14.16;69.96;98823.91;6281400;28;20094;-90
2024/02/08 14:32:52;;;;;;;20.00;7.75;;;;;;;14.02;70.70;98814.72;6298554;28;20135;-87
2024/02/08 14:35:54;;;;;;;20.02;6.05;;;;;;;13.82;71.60;98824.50;6281178;28;20048;-88
2024/02/08 14:38:55;;;;;;;18.17;6.90;;;;;;;13.88;71.67;98821.28;6281058;28;20408;-84
2024/02/08 14:41:56;;;;;;;11.80;4.45;;;;;;;13.66;71.64;98828.53;6298574;28;20492;-88
2024/02/08 14:44:57;;;;;;;16.45;5.07;;;;;;;13.63;72.42;98827.97;6281111;28;20076;-88
2024/02/08 14:48:00;;;;;;;18.10;5.07;;;;;;;13.64;72.61;98824.41;6285905;28;20412;-90
2024/02/08 14:54:20;;;;;;;14.82;4.05;;;;;;;13.49;73.53;98827.47;6324108;28;20050;-85
2024/02/08 14:57:24;;;;;;;7.20;3.05;;;;;;;13.43;73.86;98832.47;6305564;28;20043;-83
2024/02/08 15:03:36;;;;;;;10.07;3.75;;;;;;;13.44;74.69;98834.94;6306082;28;20094;-84
2024/02/08 15:06:42;;;;;;;11.57;6.13;;;;;;;13.46;74.64;98843.47;6297558;28;20086;-83
2024/02/08 15:12:55;;;;;;;13.57;5.05;;;;;;;13.39;75.73;98829.31;6298865;28;20076;-83
2024/02/08 15:15:57;;;;;;;9.43;4.40;;;;;;;13.42;75.40;98829.00;6297479;28;20516;-83
2024/02/08 15:18:58;;;;;;;8.23;4.03;;;;;;;13.41;75.73;98821.31;6297347;28;20393;-84
2024/02/08 15:22:18;;;;;;;5.18;2.60;;;;;;;13.28;75.91;98811.09;6296242;28;20134;-83
2024/02/08 15:25:19;;;;;;;5.25;3.08;;;;;;;13.21;76.39;98808.19;6296204;28;20056;-84
2024/02/08 15:28:31;;;;;;;6.43;2.93;;;;;;;13.13;76.82;98823.78;6297567;28;20059;-84
2024/02/08 15:41:28;;;;;;;6.43;3.13;;;;;;;13.04;78.07;98794.03;6296883;28;20127;-83
2024/02/08 15:44:35;;;;;;;4.15;2.30;;;;;;;13.05;77.35;98798.31;6295786;28;20083;-84
2024/02/08 15:47:54;;;;;;;5.55;2.17;;;;;;;12.90;77.70;98799.69;6295636;28;20492;-84
2024/02/08 15:50:55;;;;;;;5.50;2.10;;;;;;;12.82;78.54;98800.38;6296475;28;20186;-83
2024/02/08 15:53:59;;;;;;;3.92;2.13;;;;;;;12.78;78.31;98806.03;6295584;28;20048;-83
2024/02/08 15:57:07;;;;;;;4.63;2.78;;;;;;;12.75;78.80;98791.44;6290813;28;20070;-84
2024/02/08 16:00:33;;;;;;;7.97;3.72;;;;;;;12.65;80.23;98783.59;6286319;28;20094;-82
2024/02/08 16:03:39;;;;;;;8.52;3.95;;;;;;;12.52;81.42;98797.91;6306057;28;20056;-83
2024/02/08 16:09:49;;;;;;;5.68;2.33;;;;;;;12.49;80.83;98799.81;6324170;28;20067;-93
2024/02/08 16:13:04;;;;;;;4.32;1.77;;;;;;;12.43;80.84;98804.78;6302545;28;20131;-81
2024/02/08 16:16:08;;;;;;;4.50;1.98;;;;;;;12.50;81.10;98803.28;6290777;28;20052;-84
2024/02/08 16:19:23;;;;;;;3.55;2.00;;;;;;;12.43;81.31;98791.69;6298856;28;20052;-83
2024/02/08 16:22:28;;;;;;;4.65;2.20;;;;;;;12.32;82.57;98803.13;6301358;28;20083;-82
2024/02/08 16:25:44;;;;;;;4.65;2.10;;;;;;;12.33;82.58;98815.22;6303749;28;20134;-93
2024/02/08 16:28:49;;;;;;;2.10;1.80;;;;;;;12.20;83.75;98805.03;6304540;28;20063;-91
2024/02/08 16:31:55;;;;;;;10.25;2.90;;;;;;;12.11;83.40;98795.38;6304610;28;20044;-83